createdAt,value
2018-05-10T00:00:23.809Z,998.21
2018-05-10T00:00:49.943Z,998.18
2018-05-10T00:01:16.087Z,998.22
2018-05-10T00:01:42.229Z,998.21
2018-05-10T00:02:08.373Z,998.2
2018-05-10T00:02:34.535Z,998.22
2018-05-10T00:03:00.672Z,998.23
2018-05-10T00:03:26.833Z,998.23
2018-05-10T00:03:52.994Z,998.22
2018-05-10T00:04:19.140Z,998.26
2018-05-10T00:04:45.323Z,998.24
2018-05-10T00:05:11.489Z,998.23
2018-05-10T00:05:37.626Z,998.23
2018-05-10T00:06:03.770Z,998.25
2018-05-10T00:06:29.904Z,998.23
2018-05-10T00:06:56.044Z,998.23
2018-05-10T00:07:22.206Z,998.23
2018-05-10T00:07:48.450Z,998.22
2018-05-10T00:08:14.537Z,998.23
2018-05-10T00:08:40.709Z,998.23
2018-05-10T00:09:06.846Z,998.23
2018-05-10T00:09:32.990Z,998.26
2018-05-10T00:09:59.139Z,998.26
2018-05-10T00:10:25.327Z,998.24
2018-05-10T00:10:51.468Z,998.24
2018-05-10T00:11:17.606Z,998.22
2018-05-10T00:11:43.780Z,998.22
2018-05-10T00:12:09.953Z,998.22
2018-05-10T00:12:36.097Z,998.22
2018-05-10T00:13:02.251Z,998.22
2018-05-10T00:13:28.372Z,998.25
2018-05-10T00:13:54.515Z,998.19
2018-05-10T00:14:20.647Z,998.18
2018-05-10T00:14:46.793Z,998.18
2018-05-10T00:15:12.956Z,998.17
2018-05-10T00:15:39.098Z,998.14
2018-05-10T00:16:05.281Z,998.16
2018-05-10T00:16:31.420Z,998.17
2018-05-10T00:16:57.566Z,998.15
2018-05-10T00:17:23.710Z,998.14
2018-05-10T00:17:49.878Z,998.12
2018-05-10T00:18:16.016Z,998.14
2018-05-10T00:18:42.155Z,998.12
2018-05-10T00:19:08.295Z,998.1
2018-05-10T00:19:34.436Z,998.09
2018-05-10T00:20:00.599Z,998.13
2018-05-10T00:20:26.761Z,998.11
2018-05-10T00:20:52.902Z,998.11
2018-05-10T00:21:19.035Z,998.13
2018-05-10T00:21:45.202Z,998.14
2018-05-10T00:22:11.367Z,998.09
2018-05-10T00:22:37.511Z,998.12
2018-05-10T00:23:03.661Z,998.14
2018-05-10T00:23:29.809Z,998.11
2018-05-10T00:23:55.955Z,998.09
2018-05-10T00:24:22.222Z,998.11
2018-05-10T00:24:48.258Z,998.08
2018-05-10T00:25:14.396Z,998.1
2018-05-10T00:25:40.542Z,998.12
2018-05-10T00:26:06.713Z,998.1
2018-05-10T00:26:32.849Z,998.08
2018-05-10T00:26:58.986Z,998.09
2018-05-10T00:27:25.131Z,998.09
2018-05-10T00:27:51.274Z,998.09
2018-05-10T00:28:17.416Z,998.01
2018-05-10T00:28:43.601Z,998.08
2018-05-10T00:29:09.736Z,998.07
2018-05-10T00:29:35.894Z,998.06
2018-05-10T00:30:02.030Z,998.05
2018-05-10T00:30:28.172Z,998.07
2018-05-10T00:30:54.314Z,998.04
2018-05-10T00:31:20.455Z,998.04
2018-05-10T00:31:46.600Z,998.03
2018-05-10T00:32:12.734Z,998.03
2018-05-10T00:32:38.874Z,998
2018-05-10T00:33:05.009Z,998.03
2018-05-10T00:33:31.152Z,998.03
2018-05-10T00:33:57.291Z,998.05
2018-05-10T00:34:23.433Z,998.07
2018-05-10T00:34:49.567Z,998.06
2018-05-10T00:35:15.705Z,998.04
2018-05-10T00:35:41.869Z,998.08
2018-05-10T00:36:08.031Z,998.04
2018-05-10T00:36:34.180Z,998.03
2018-05-10T00:37:00.328Z,998.05
2018-05-10T00:37:26.464Z,998.06
2018-05-10T00:37:52.626Z,998.06
2018-05-10T00:38:18.770Z,998.03
2018-05-10T00:38:44.936Z,998.02
2018-05-10T00:39:11.122Z,998.04
2018-05-10T00:39:37.265Z,998.05
2018-05-10T00:40:03.404Z,998.05
2018-05-10T00:40:29.576Z,998.04
2018-05-10T00:40:55.709Z,998.04
2018-05-10T00:41:21.879Z,998.05
2018-05-10T00:41:48.016Z,998.02
2018-05-10T00:42:14.186Z,998.01
2018-05-10T00:42:40.331Z,998.03
2018-05-10T00:43:06.493Z,998.03
2018-05-10T00:43:32.637Z,998.04
2018-05-10T00:43:58.775Z,998.03
2018-05-10T00:44:24.915Z,998.02
2018-05-10T00:44:51.059Z,998.03
2018-05-10T00:45:17.196Z,998.01
2018-05-10T00:45:43.334Z,998.04
2018-05-10T00:46:09.484Z,998.01
2018-05-10T00:46:35.618Z,997.97
2018-05-10T00:47:01.762Z,997.99
2018-05-10T00:47:27.926Z,998.01
2018-05-10T00:47:54.069Z,997.98
2018-05-10T00:48:20.205Z,997.97
2018-05-10T00:48:46.349Z,997.99
2018-05-10T00:49:12.509Z,997.94
2018-05-10T00:49:38.678Z,998
2018-05-10T00:50:04.818Z,998.05
2018-05-10T00:50:30.955Z,998.01
2018-05-10T00:50:57.096Z,998
2018-05-10T00:51:23.275Z,998.01
2018-05-10T00:51:49.413Z,998
2018-05-10T00:52:15.550Z,997.97
2018-05-10T00:52:41.702Z,998.02
2018-05-10T00:53:07.839Z,997.99
2018-05-10T00:53:34.002Z,998.02
2018-05-10T00:54:00.144Z,997.97
2018-05-10T00:54:26.279Z,997.99
2018-05-10T00:54:52.473Z,997.99
2018-05-10T00:55:18.624Z,997.99
2018-05-10T00:55:44.751Z,997.97
2018-05-10T00:56:10.889Z,997.99
2018-05-10T00:56:37.034Z,997.98
2018-05-10T00:57:03.171Z,997.97
2018-05-10T00:57:29.308Z,997.94
2018-05-10T00:57:55.449Z,997.96
2018-05-10T00:58:21.593Z,997.95
2018-05-10T00:58:47.732Z,997.92
2018-05-10T00:59:13.876Z,997.94
2018-05-10T00:59:40.020Z,997.91
2018-05-10T01:00:06.182Z,997.89
2018-05-10T01:00:32.342Z,997.9
2018-05-10T01:00:58.487Z,997.91
2018-05-10T01:01:24.617Z,997.91
2018-05-10T01:01:50.781Z,997.92
2018-05-10T01:02:16.921Z,997.9
2018-05-10T01:02:43.063Z,997.86
2018-05-10T01:03:09.222Z,997.89
2018-05-10T01:03:35.355Z,997.91
2018-05-10T01:04:01.501Z,997.89
2018-05-10T01:04:27.665Z,997.9
2018-05-10T01:04:53.912Z,997.89
2018-05-10T01:05:19.959Z,997.9
2018-05-10T01:05:46.104Z,997.9
2018-05-10T01:06:12.276Z,997.88
2018-05-10T01:06:38.412Z,997.91
2018-05-10T01:07:04.557Z,997.91
2018-05-10T01:07:30.694Z,997.92
2018-05-10T01:07:56.836Z,997.9
2018-05-10T01:08:22.997Z,997.9
2018-05-10T01:08:49.187Z,997.88
2018-05-10T01:09:15.325Z,997.92
2018-05-10T01:09:41.464Z,997.93
2018-05-10T01:10:07.625Z,997.94
2018-05-10T01:10:33.794Z,997.96
2018-05-10T01:11:00.028Z,997.94
2018-05-10T01:11:26.180Z,997.93
2018-05-10T01:11:52.234Z,997.92
2018-05-10T01:12:18.404Z,997.91
2018-05-10T01:12:44.551Z,997.95
2018-05-10T01:13:10.680Z,997.98
2018-05-10T01:13:36.832Z,997.93
2018-05-10T01:14:02.970Z,997.93
2018-05-10T01:14:29.114Z,997.96
2018-05-10T01:14:55.258Z,997.92
2018-05-10T01:15:21.423Z,997.92
2018-05-10T01:15:47.560Z,997.93
2018-05-10T01:16:13.725Z,997.91
2018-05-10T01:16:39.870Z,997.87
2018-05-10T01:17:06.034Z,997.9
2018-05-10T01:17:32.166Z,997.92
2018-05-10T01:17:58.308Z,997.89
2018-05-10T01:18:24.472Z,997.86
2018-05-10T01:18:50.611Z,997.9
2018-05-10T01:19:16.781Z,997.87
2018-05-10T01:19:42.922Z,997.9
2018-05-10T01:20:09.070Z,997.87
2018-05-10T01:20:35.210Z,997.91
2018-05-10T01:21:01.348Z,997.9
2018-05-10T01:21:27.507Z,997.94
2018-05-10T01:21:53.646Z,997.91
2018-05-10T01:22:19.791Z,997.93
2018-05-10T01:22:45.932Z,997.91
2018-05-10T01:23:12.068Z,997.95
2018-05-10T01:23:38.203Z,997.92
2018-05-10T01:24:04.342Z,997.91
2018-05-10T01:24:30.484Z,997.93
2018-05-10T01:24:56.623Z,997.95
2018-05-10T01:25:22.817Z,997.93
2018-05-10T01:25:48.957Z,997.97
2018-05-10T01:26:15.129Z,997.97
2018-05-10T01:26:41.263Z,997.95
2018-05-10T01:27:07.396Z,997.99
2018-05-10T01:27:33.538Z,997.98
2018-05-10T01:27:59.678Z,998.01
2018-05-10T01:28:25.824Z,998.01
2018-05-10T01:28:51.957Z,997.98
2018-05-10T01:29:18.096Z,998.01
2018-05-10T01:29:44.236Z,998.05
2018-05-10T01:30:10.375Z,998.03
2018-05-10T01:30:36.515Z,998.01
2018-05-10T01:31:02.659Z,998.03
2018-05-10T01:31:28.816Z,998.05
2018-05-10T01:31:54.957Z,998.02
2018-05-10T01:32:21.092Z,998.06
2018-05-10T01:32:47.232Z,998
2018-05-10T01:33:13.368Z,997.99
2018-05-10T01:33:39.503Z,997.99
2018-05-10T01:34:05.644Z,997.98
2018-05-10T01:34:31.787Z,997.99
2018-05-10T01:34:57.936Z,997.99
2018-05-10T01:35:24.071Z,997.96
2018-05-10T01:35:50.205Z,998.01
2018-05-10T01:36:16.342Z,998.01
2018-05-10T01:36:42.488Z,998
2018-05-10T01:37:08.623Z,998.01
2018-05-10T01:37:34.768Z,998.02
2018-05-10T01:38:00.906Z,998.02
2018-05-10T01:38:27.056Z,998
2018-05-10T01:38:53.209Z,997.96
2018-05-10T01:39:19.348Z,998
2018-05-10T01:39:45.484Z,998.02
2018-05-10T01:40:11.646Z,998
2018-05-10T01:40:37.815Z,997.95
2018-05-10T01:41:03.950Z,998.02
2018-05-10T01:41:30.099Z,998.08
2018-05-10T01:41:56.266Z,998.06
2018-05-10T01:42:22.403Z,998.04
2018-05-10T01:42:48.547Z,998.06
2018-05-10T01:43:14.739Z,998.06
2018-05-10T01:43:40.872Z,998
2018-05-10T01:44:07.021Z,998.04
2018-05-10T01:44:33.183Z,998.05
2018-05-10T01:44:59.321Z,998.05
2018-05-10T01:45:25.463Z,998.06
2018-05-10T01:45:51.631Z,998.09
2018-05-10T01:46:17.767Z,998.1
2018-05-10T01:46:43.909Z,998.07
2018-05-10T01:47:10.056Z,998.11
2018-05-10T01:47:36.214Z,998.11
2018-05-10T01:48:02.352Z,998.07
2018-05-10T01:48:28.503Z,998.09
2018-05-10T01:48:54.724Z,998.06
2018-05-10T01:49:20.863Z,998.08
2018-05-10T01:49:46.999Z,998.1
2018-05-10T01:50:13.170Z,998.08
2018-05-10T01:50:39.311Z,998.08
2018-05-10T01:51:05.450Z,998.09
2018-05-10T01:51:31.581Z,998.07
2018-05-10T01:51:57.752Z,998.11
2018-05-10T01:52:23.884Z,998.11
2018-05-10T01:52:50.026Z,998.09
2018-05-10T01:53:16.199Z,998.08
2018-05-10T01:53:42.332Z,998.05
2018-05-10T01:54:08.472Z,998.06
2018-05-10T01:54:34.615Z,998.07
2018-05-10T01:55:00.756Z,998.05
2018-05-10T01:55:26.908Z,998.06
2018-05-10T01:55:53.068Z,998.05
2018-05-10T01:56:19.236Z,998.04
2018-05-10T01:56:45.376Z,998.01
2018-05-10T01:57:11.510Z,997.99
2018-05-10T01:57:37.662Z,998
2018-05-10T01:58:03.817Z,998.02
2018-05-10T01:58:29.964Z,997.98
2018-05-10T01:58:56.096Z,998.05
2018-05-10T01:59:22.244Z,998
2018-05-10T01:59:48.380Z,998.01
2018-05-10T02:00:14.520Z,998.01
2018-05-10T02:00:40.682Z,998.05
2018-05-10T02:01:06.825Z,998.02
2018-05-10T02:01:32.966Z,998.01
2018-05-10T02:01:59.110Z,998.02
2018-05-10T02:02:25.248Z,998.04
2018-05-10T02:02:51.390Z,998.02
2018-05-10T02:03:17.556Z,998.02
2018-05-10T02:03:43.695Z,998.05
2018-05-10T02:04:09.837Z,998.03
2018-05-10T02:04:35.974Z,998.04
2018-05-10T02:05:02.132Z,998
2018-05-10T02:05:28.273Z,998.01
2018-05-10T02:05:54.414Z,998.02
2018-05-10T02:06:20.570Z,997.99
2018-05-10T02:06:46.723Z,997.98
2018-05-10T02:07:12.858Z,997.99
2018-05-10T02:07:39.001Z,998.01
2018-05-10T02:08:05.172Z,997.97
2018-05-10T02:08:31.313Z,997.99
2018-05-10T02:08:57.460Z,997.99
2018-05-10T02:09:23.619Z,997.99
2018-05-10T02:09:49.763Z,997.99
2018-05-10T02:10:15.893Z,997.99
2018-05-10T02:10:42.030Z,997.97
2018-05-10T02:11:08.193Z,997.96
2018-05-10T02:11:34.335Z,997.97
2018-05-10T02:12:00.473Z,997.98
2018-05-10T02:12:26.609Z,997.97
2018-05-10T02:12:52.750Z,997.99
2018-05-10T02:13:18.897Z,997.97
2018-05-10T02:13:45.081Z,997.94
2018-05-10T02:14:11.217Z,997.91
2018-05-10T02:14:37.412Z,997.95
2018-05-10T02:15:03.548Z,997.94
2018-05-10T02:15:29.708Z,997.93
2018-05-10T02:15:55.851Z,997.98
2018-05-10T02:16:21.993Z,997.96
2018-05-10T02:16:48.135Z,997.98
2018-05-10T02:17:14.279Z,997.97
2018-05-10T02:17:40.452Z,997.99
2018-05-10T02:18:06.593Z,997.98
2018-05-10T02:18:32.731Z,997.99
2018-05-10T02:18:58.893Z,997.98
2018-05-10T02:19:25.058Z,997.95
2018-05-10T02:19:51.194Z,997.94
2018-05-10T02:20:17.336Z,997.91
2018-05-10T02:20:43.471Z,997.91
2018-05-10T02:21:09.613Z,997.96
2018-05-10T02:21:35.759Z,997.96
2018-05-10T02:22:01.898Z,997.94
2018-05-10T02:22:28.036Z,997.96
2018-05-10T02:22:54.175Z,997.96
2018-05-10T02:23:20.316Z,997.99
2018-05-10T02:23:46.455Z,997.95
2018-05-10T02:24:12.605Z,997.95
2018-05-10T02:24:38.760Z,997.96
2018-05-10T02:25:04.903Z,997.96
2018-05-10T02:25:31.037Z,997.99
2018-05-10T02:25:57.176Z,997.98
2018-05-10T02:26:23.325Z,997.99
2018-05-10T02:26:49.461Z,997.99
2018-05-10T02:27:15.631Z,998.02
2018-05-10T02:27:41.771Z,998.02
2018-05-10T02:28:07.917Z,997.97
2018-05-10T02:28:34.054Z,997.98
2018-05-10T02:29:00.189Z,997.96
2018-05-10T02:29:26.361Z,998
2018-05-10T02:29:52.531Z,998.02
2018-05-10T02:30:18.665Z,998.01
2018-05-10T02:30:44.854Z,998.02
2018-05-10T02:31:11.013Z,998.02
2018-05-10T02:31:37.154Z,998.03
2018-05-10T02:32:03.323Z,998.04
2018-05-10T02:32:29.493Z,998.02
2018-05-10T02:32:55.630Z,997.99
2018-05-10T02:33:21.841Z,998.03
2018-05-10T02:33:48.086Z,998.01
2018-05-10T02:34:14.220Z,998.05
2018-05-10T02:34:40.388Z,998.05
2018-05-10T02:35:06.604Z,998.03
2018-05-10T02:35:32.765Z,998.04
2018-05-10T02:35:58.979Z,998.05
2018-05-10T02:36:25.159Z,998.06
2018-05-10T02:36:51.324Z,998.07
2018-05-10T02:37:17.492Z,998.08
2018-05-10T02:37:43.646Z,998.11
2018-05-10T02:38:09.799Z,998.09
2018-05-10T02:38:35.939Z,998.13
2018-05-10T02:39:02.100Z,998.14
2018-05-10T02:39:28.238Z,998.14
2018-05-10T02:39:54.380Z,998.15
2018-05-10T02:40:20.539Z,998.17
2018-05-10T02:40:46.701Z,998.16
2018-05-10T02:41:12.839Z,998.19
2018-05-10T02:41:38.997Z,998.18
2018-05-10T02:42:05.165Z,998.18
2018-05-10T02:42:31.302Z,998.2
2018-05-10T02:42:57.512Z,998.23
2018-05-10T02:43:23.725Z,998.26
2018-05-10T02:43:49.896Z,998.27
2018-05-10T02:44:16.062Z,998.31
2018-05-10T02:44:42.218Z,998.32
2018-05-10T02:45:08.496Z,998.34
2018-05-10T02:45:34.534Z,998.35
2018-05-10T02:46:00.699Z,998.33
2018-05-10T02:46:26.833Z,998.34
2018-05-10T02:46:53.003Z,998.36
2018-05-10T02:47:19.179Z,998.39
2018-05-10T02:47:45.319Z,998.37
2018-05-10T02:48:11.606Z,998.32
2018-05-10T02:48:37.685Z,998.34
2018-05-10T02:49:03.851Z,998.41
2018-05-10T02:49:30.014Z,998.36
2018-05-10T02:49:56.175Z,998.41
2018-05-10T02:50:22.374Z,998.39
2018-05-10T02:50:48.534Z,998.38
2018-05-10T02:51:14.703Z,998.39
2018-05-10T02:51:40.868Z,998.41
2018-05-10T02:52:07.054Z,998.4
2018-05-10T02:52:33.218Z,998.4
2018-05-10T02:52:59.376Z,998.41
2018-05-10T02:53:25.541Z,998.43
2018-05-10T02:53:51.676Z,998.43
2018-05-10T02:54:17.837Z,998.44
2018-05-10T02:54:43.998Z,998.44
2018-05-10T02:55:10.202Z,998.42
2018-05-10T02:55:36.394Z,998.45
2018-05-10T02:56:02.549Z,998.5
2018-05-10T02:56:28.711Z,998.45
2018-05-10T02:56:54.883Z,998.49
2018-05-10T02:57:21.043Z,998.51
2018-05-10T02:57:47.238Z,998.51
2018-05-10T02:58:13.426Z,998.52
2018-05-10T02:58:39.597Z,998.52
2018-05-10T02:59:05.736Z,998.5
2018-05-10T02:59:31.919Z,998.5
2018-05-10T02:59:58.083Z,998.51
2018-05-10T03:00:24.274Z,998.56
2018-05-10T03:00:50.436Z,998.58
2018-05-10T03:01:16.576Z,998.58
2018-05-10T03:01:42.759Z,998.59
2018-05-10T03:02:08.925Z,998.63
2018-05-10T03:02:35.084Z,998.66
2018-05-10T03:03:01.216Z,998.64
2018-05-10T03:03:27.406Z,998.69
2018-05-10T03:03:53.574Z,998.69
2018-05-10T03:04:19.707Z,998.7
2018-05-10T03:04:45.892Z,998.73
2018-05-10T03:05:12.050Z,998.71
2018-05-10T03:05:38.239Z,998.76
2018-05-10T03:06:04.384Z,998.75
2018-05-10T03:06:30.552Z,998.76
2018-05-10T03:06:56.714Z,998.82
2018-05-10T03:07:22.859Z,998.85
2018-05-10T03:07:49.044Z,998.82
2018-05-10T03:08:15.178Z,998.84
2018-05-10T03:08:41.378Z,998.88
2018-05-10T03:09:07.523Z,998.85
2018-05-10T03:09:33.685Z,998.86
2018-05-10T03:09:59.830Z,998.82
2018-05-10T03:10:25.986Z,998.81
2018-05-10T03:10:52.124Z,998.83
2018-05-10T03:11:18.285Z,998.85
2018-05-10T03:11:44.455Z,998.84
2018-05-10T03:12:10.598Z,998.83
2018-05-10T03:12:36.763Z,998.83
2018-05-10T03:13:02.903Z,998.78
2018-05-10T03:13:29.065Z,998.82
2018-05-10T03:13:55.282Z,998.82
2018-05-10T03:14:21.471Z,998.8
2018-05-10T03:14:47.689Z,998.82
2018-05-10T03:15:13.880Z,998.79
2018-05-10T03:15:40.043Z,998.81
2018-05-10T03:16:06.211Z,998.78
2018-05-10T03:16:32.353Z,998.76
2018-05-10T03:16:58.487Z,998.78
2018-05-10T03:17:24.674Z,998.76
2018-05-10T03:17:50.845Z,998.74
2018-05-10T03:18:16.987Z,998.73
2018-05-10T03:18:43.128Z,998.75
2018-05-10T03:19:09.263Z,998.69
2018-05-10T03:19:35.404Z,998.69
2018-05-10T03:20:01.534Z,998.7
2018-05-10T03:20:27.681Z,998.7
2018-05-10T03:20:53.815Z,998.67
2018-05-10T03:21:19.959Z,998.69
2018-05-10T03:21:46.145Z,998.63
2018-05-10T03:22:12.315Z,998.65
2018-05-10T03:22:38.449Z,998.66
2018-05-10T03:23:04.630Z,998.63
2018-05-10T03:23:30.787Z,998.67
2018-05-10T03:23:56.923Z,998.67
2018-05-10T03:24:23.116Z,998.66
2018-05-10T03:24:49.255Z,998.68
2018-05-10T03:25:15.394Z,998.68
2018-05-10T03:25:41.552Z,998.69
2018-05-10T03:26:07.739Z,998.7
2018-05-10T03:26:33.900Z,998.66
2018-05-10T03:27:00.043Z,998.68
2018-05-10T03:27:26.180Z,998.68
2018-05-10T03:27:52.322Z,998.72
2018-05-10T03:28:18.466Z,998.71
2018-05-10T03:28:44.606Z,998.69
2018-05-10T03:29:10.743Z,998.68
2018-05-10T03:29:36.878Z,998.71
2018-05-10T03:30:03.023Z,998.71
2018-05-10T03:30:29.233Z,998.74
2018-05-10T03:30:55.425Z,998.71
2018-05-10T03:31:21.594Z,998.71
2018-05-10T03:31:47.782Z,998.73
2018-05-10T03:32:13.964Z,998.74
2018-05-10T03:32:40.101Z,998.74
2018-05-10T03:33:06.240Z,998.72
2018-05-10T03:33:32.401Z,998.75
2018-05-10T03:33:58.540Z,998.75
2018-05-10T03:34:24.702Z,998.71
2018-05-10T03:34:50.840Z,998.7
2018-05-10T03:35:16.976Z,998.7
2018-05-10T03:35:43.119Z,998.72
2018-05-10T03:36:09.255Z,998.69
2018-05-10T03:36:35.428Z,998.69
2018-05-10T03:37:01.573Z,998.67
2018-05-10T03:37:27.708Z,998.72
2018-05-10T03:37:53.847Z,998.68
2018-05-10T03:38:19.989Z,998.67
2018-05-10T03:38:46.141Z,998.64
2018-05-10T03:39:12.280Z,998.69
2018-05-10T03:39:38.445Z,998.69
2018-05-10T03:40:04.601Z,998.7
2018-05-10T03:40:30.808Z,998.72
2018-05-10T03:40:56.916Z,998.71
2018-05-10T03:41:23.055Z,998.68
2018-05-10T03:41:49.195Z,998.71
2018-05-10T03:42:15.344Z,998.71
2018-05-10T03:42:41.476Z,998.7
2018-05-10T03:43:07.617Z,998.69
2018-05-10T03:43:33.758Z,998.72
2018-05-10T03:43:59.898Z,998.7
2018-05-10T03:44:26.087Z,998.74
2018-05-10T03:44:52.204Z,998.76
2018-05-10T03:45:18.339Z,998.75
2018-05-10T03:45:44.471Z,998.79
2018-05-10T03:46:10.612Z,998.79
2018-05-10T03:46:36.774Z,998.82
2018-05-10T03:47:02.913Z,998.8
2018-05-10T03:47:29.060Z,998.78
2018-05-10T03:47:55.209Z,998.84
2018-05-10T03:48:21.345Z,998.85
2018-05-10T03:48:47.505Z,998.86
2018-05-10T03:49:13.670Z,998.81
2018-05-10T03:49:39.833Z,998.86
2018-05-10T03:50:06.003Z,998.87
2018-05-10T03:50:32.157Z,998.89
2018-05-10T03:50:58.321Z,998.85
2018-05-10T03:51:24.460Z,998.82
2018-05-10T03:51:50.603Z,998.85
2018-05-10T03:52:16.738Z,998.88
2018-05-10T03:52:42.897Z,998.85
2018-05-10T03:53:09.045Z,998.78
2018-05-10T03:53:35.186Z,998.9
2018-05-10T03:54:01.322Z,998.87
2018-05-10T03:54:27.462Z,998.9
2018-05-10T03:54:53.604Z,998.87
2018-05-10T03:55:19.762Z,998.89
2018-05-10T03:55:45.898Z,998.89
2018-05-10T03:56:12.060Z,998.89
2018-05-10T03:56:38.203Z,998.96
2018-05-10T03:57:04.342Z,998.97
2018-05-10T03:57:30.481Z,998.94
2018-05-10T03:57:56.670Z,998.98
2018-05-10T03:58:22.809Z,998.96
2018-05-10T03:58:48.942Z,999.02
2018-05-10T03:59:15.090Z,998.99
2018-05-10T03:59:41.241Z,999.03
2018-05-10T04:00:07.396Z,999.06
2018-05-10T04:00:33.536Z,999.09
2018-05-10T04:00:59.691Z,999.05
2018-05-10T04:01:25.840Z,999.08
2018-05-10T04:01:51.979Z,999.09
2018-05-10T04:02:18.174Z,999.07
2018-05-10T04:02:44.337Z,999.11
2018-05-10T04:03:10.481Z,999.11
2018-05-10T04:03:36.613Z,999.08
2018-05-10T04:04:02.754Z,999.1
2018-05-10T04:04:28.890Z,999.1
2018-05-10T04:04:55.031Z,999.12
2018-05-10T04:05:21.170Z,999.16
2018-05-10T04:05:47.314Z,999.16
2018-05-10T04:06:13.474Z,999.19
2018-05-10T04:06:39.607Z,999.18
2018-05-10T04:07:05.752Z,999.2
2018-05-10T04:07:31.915Z,999.17
2018-05-10T04:07:58.122Z,999.22
2018-05-10T04:08:24.222Z,999.29
2018-05-10T04:08:50.362Z,999.23
2018-05-10T04:09:16.497Z,999.24
2018-05-10T04:09:42.635Z,999.26
2018-05-10T04:10:08.773Z,999.32
2018-05-10T04:10:34.918Z,999.29
2018-05-10T04:11:01.059Z,999.29
2018-05-10T04:11:27.203Z,999.31
2018-05-10T04:11:53.363Z,999.3
2018-05-10T04:12:19.527Z,999.34
2018-05-10T04:12:45.663Z,999.33
2018-05-10T04:13:11.801Z,999.38
2018-05-10T04:13:37.936Z,999.33
2018-05-10T04:14:04.083Z,999.35
2018-05-10T04:14:30.225Z,999.37
2018-05-10T04:14:56.384Z,999.36
2018-05-10T04:15:22.529Z,999.35
2018-05-10T04:15:48.667Z,999.3
2018-05-10T04:16:14.807Z,999.34
2018-05-10T04:16:40.965Z,999.36
2018-05-10T04:17:07.114Z,999.33
2018-05-10T04:17:33.272Z,999.32
2018-05-10T04:17:59.414Z,999.32
2018-05-10T04:18:25.573Z,999.33
2018-05-10T04:18:51.718Z,999.34
2018-05-10T04:19:17.858Z,999.33
2018-05-10T04:19:43.995Z,999.36
2018-05-10T04:20:10.135Z,999.36
2018-05-10T04:20:36.302Z,999.33
2018-05-10T04:21:02.444Z,999.32
2018-05-10T04:21:28.635Z,999.32
2018-05-10T04:21:54.747Z,999.36
2018-05-10T04:22:20.877Z,999.35
2018-05-10T04:22:47.044Z,999.32
2018-05-10T04:23:13.189Z,999.28
2018-05-10T04:23:39.351Z,999.27
2018-05-10T04:24:05.493Z,999.35
2018-05-10T04:24:31.633Z,999.38
2018-05-10T04:24:57.771Z,999.31
2018-05-10T04:25:23.924Z,999.37
2018-05-10T04:25:50.055Z,999.35
2018-05-10T04:26:16.195Z,999.34
2018-05-10T04:26:42.331Z,999.33
2018-05-10T04:27:08.498Z,999.33
2018-05-10T04:27:34.663Z,999.33
2018-05-10T04:28:00.805Z,999.27
2018-05-10T04:28:26.945Z,999.36
2018-05-10T04:28:53.092Z,999.35
2018-05-10T04:29:19.225Z,999.38
2018-05-10T04:29:45.367Z,999.34
2018-05-10T04:30:11.504Z,999.33
2018-05-10T04:30:37.647Z,999.33
2018-05-10T04:31:03.798Z,999.38
2018-05-10T04:31:29.955Z,999.37
2018-05-10T04:31:56.127Z,999.35
2018-05-10T04:32:22.313Z,999.39
2018-05-10T04:32:48.456Z,999.4
2018-05-10T04:33:14.618Z,999.42
2018-05-10T04:33:40.757Z,999.39
2018-05-10T04:34:06.895Z,999.4
2018-05-10T04:34:33.032Z,999.41
2018-05-10T04:34:59.177Z,999.45
2018-05-10T04:35:25.306Z,999.4
2018-05-10T04:35:51.462Z,999.43
2018-05-10T04:36:17.605Z,999.48
2018-05-10T04:36:43.746Z,999.46
2018-05-10T04:37:09.928Z,999.48
2018-05-10T04:37:36.072Z,999.51
2018-05-10T04:38:02.216Z,999.5
2018-05-10T04:38:28.354Z,999.49
2018-05-10T04:38:54.498Z,999.52
2018-05-10T04:39:20.632Z,999.56
2018-05-10T04:39:46.813Z,999.57
2018-05-10T04:40:12.971Z,999.54
2018-05-10T04:40:39.123Z,999.57
2018-05-10T04:41:05.287Z,999.54
2018-05-10T04:41:31.445Z,999.58
2018-05-10T04:41:57.589Z,999.61
2018-05-10T04:42:23.731Z,999.58
2018-05-10T04:42:49.889Z,999.66
2018-05-10T04:43:16.029Z,999.66
2018-05-10T04:43:42.201Z,999.65
2018-05-10T04:44:08.365Z,999.64
2018-05-10T04:44:34.505Z,999.69
2018-05-10T04:45:00.632Z,999.71
2018-05-10T04:45:26.768Z,999.74
2018-05-10T04:45:52.909Z,999.69
2018-05-10T04:46:19.098Z,999.71
2018-05-10T04:46:45.263Z,999.7
2018-05-10T04:47:11.449Z,999.73
2018-05-10T04:47:37.594Z,999.75
2018-05-10T04:48:03.760Z,999.75
2018-05-10T04:48:29.948Z,999.79
2018-05-10T04:48:56.086Z,999.8
2018-05-10T04:49:22.256Z,999.81
2018-05-10T04:49:48.398Z,999.8
2018-05-10T04:50:14.543Z,999.8
2018-05-10T04:50:40.679Z,999.86
2018-05-10T04:51:06.821Z,999.85
2018-05-10T04:51:32.984Z,999.85
2018-05-10T04:51:59.129Z,999.85
2018-05-10T04:52:25.266Z,999.88
2018-05-10T04:52:51.455Z,999.91
2018-05-10T04:53:17.624Z,999.9
2018-05-10T04:53:43.765Z,999.9
2018-05-10T04:54:09.932Z,999.91
2018-05-10T04:54:36.073Z,999.94
2018-05-10T04:55:02.239Z,999.97
2018-05-10T04:55:28.399Z,999.91
2018-05-10T04:55:54.539Z,1000.01
2018-05-10T04:56:20.680Z,999.97
2018-05-10T04:56:46.824Z,999.97
2018-05-10T04:57:12.981Z,1000.02
2018-05-10T04:57:39.122Z,1000.01
2018-05-10T04:58:05.262Z,1000.04
2018-05-10T04:58:31.424Z,999.99
2018-05-10T04:58:57.566Z,1000.02
2018-05-10T04:59:23.708Z,1000.05
2018-05-10T04:59:49.847Z,1000.02
2018-05-10T05:00:16.004Z,1000.05
2018-05-10T05:00:42.138Z,1000.04
2018-05-10T05:01:08.284Z,1000.05
2018-05-10T05:01:34.447Z,1000.07
2018-05-10T05:02:00.603Z,1000.04
2018-05-10T05:02:26.751Z,1000.07
2018-05-10T05:02:52.885Z,1000.07
2018-05-10T05:03:19.050Z,1000.11
2018-05-10T05:03:45.171Z,1000.12
2018-05-10T05:04:11.312Z,1000.09
2018-05-10T05:04:37.446Z,1000.11
2018-05-10T05:05:03.589Z,1000.08
2018-05-10T05:05:29.722Z,1000.08
2018-05-10T05:05:55.860Z,1000.08
2018-05-10T05:06:21.991Z,1000.1
2018-05-10T05:06:48.165Z,1000.1
2018-05-10T05:07:14.298Z,1000.04
2018-05-10T05:07:40.432Z,1000.15
2018-05-10T05:08:06.572Z,1000.15
2018-05-10T05:08:32.708Z,1000.14
2018-05-10T05:08:58.889Z,1000.14
2018-05-10T05:09:25.013Z,1000.09
2018-05-10T05:09:51.151Z,1000.14
2018-05-10T05:10:17.291Z,1000.11
2018-05-10T05:10:43.455Z,1000.16
2018-05-10T05:11:09.592Z,1000.11
2018-05-10T05:11:35.734Z,1000.15
2018-05-10T05:12:01.932Z,1000.11
2018-05-10T05:12:28.041Z,1000.14
2018-05-10T05:12:54.184Z,1000.12
2018-05-10T05:13:20.333Z,1000.19
2018-05-10T05:13:46.498Z,1000.22
2018-05-10T05:14:12.643Z,1000.13
2018-05-10T05:14:38.785Z,1000.16
2018-05-10T05:15:04.993Z,1000.12
2018-05-10T05:15:31.060Z,1000.16
2018-05-10T05:15:57.203Z,1000.16
2018-05-10T05:16:23.370Z,1000.14
2018-05-10T05:16:49.505Z,1000.17
2018-05-10T05:17:15.648Z,1000.2
2018-05-10T05:17:41.786Z,1000.22
2018-05-10T05:18:07.931Z,1000.22
2018-05-10T05:18:34.072Z,1000.19
2018-05-10T05:19:00.240Z,1000.22
2018-05-10T05:19:26.382Z,1000.2
2018-05-10T05:19:52.519Z,1000.19
2018-05-10T05:20:18.668Z,1000.22
2018-05-10T05:20:44.811Z,1000.24
2018-05-10T05:21:10.951Z,1000.22
2018-05-10T05:21:37.165Z,1000.26
2018-05-10T05:22:03.232Z,1000.25
2018-05-10T05:22:29.370Z,1000.24
2018-05-10T05:22:55.512Z,1000.26
2018-05-10T05:23:21.647Z,1000.25
2018-05-10T05:23:47.806Z,1000.28
2018-05-10T05:24:13.943Z,1000.25
2018-05-10T05:24:40.084Z,1000.29
2018-05-10T05:25:06.229Z,1000.3
2018-05-10T05:25:32.371Z,1000.32
2018-05-10T05:25:58.519Z,1000.33
2018-05-10T05:26:24.659Z,1000.37
2018-05-10T05:26:50.870Z,1000.34